Time;durP1;ratioP1;P1;durP2;ratioP2;P2;SDS_P1;SDS_P2;PMS_P1;PMS_P2;Temp;Humidity;BMP_temperature;BMP_pressure;BME280_temperature;BME280_humidity;BME280_pressure;Samples;Min_cycle;Max_cycle;Signal;HPM_P1;HPM_P2
2022/02/15 00:00:30;;;;;;;14.02;9.05;;;-0.20;83.10;;;;;;5017538;28;20026;-88
2022/02/15 00:02:56;;;;;;;11.57;8.30;;;-0.20;83.10;;;;;;5030088;28;20049;-89
2022/02/15 00:05:22;;;;;;;12.90;7.72;;;-0.30;83.10;;;;;;5024587;28;20105;-91
2022/02/15 00:07:48;;;;;;;11.35;8.55;;;-0.30;83.20;;;;;;5016716;28;20127;-87
2022/02/15 00:10:14;;;;;;;17.73;8.20;;;-0.30;83.30;;;;;;5015854;28;20022;-89
2022/02/15 00:12:40;;;;;;;13.23;8.93;;;-0.30;83.30;;;;;;5009010;28;20026;-89
2022/02/15 00:15:08;;;;;;;12.13;8.25;;;-0.30;83.40;;;;;;4996281;28;20062;-89
2022/02/15 00:17:35;;;;;;;11.77;8.15;;;-0.30;83.50;;;;;;4997382;28;20026;-89
2022/02/15 00:20:00;;;;;;;12.98;8.43;;;-0.40;83.50;;;;;;4998033;28;20085;-89
2022/02/15 00:22:26;;;;;;;12.48;8.30;;;-0.40;83.80;;;;;;5001781;28;20023;-88
2022/02/15 00:24:52;;;;;;;12.35;7.85;;;-0.40;84.00;;;;;;5006991;28;20026;-90
2022/02/15 00:27:18;;;;;;;12.82;8.52;;;-0.40;83.90;;;;;;5012165;28;20593;-87
2022/02/15 00:29:44;;;;;;;14.43;9.00;;;-0.40;84.00;;;;;;5005168;28;20026;-88
2022/02/15 00:32:09;;;;;;;11.80;8.00;;;-0.40;84.10;;;;;;5003262;28;20037;-87
2022/02/15 00:34:35;;;;;;;14.15;9.95;;;-0.40;84.20;;;;;;5005363;28;20034;-88
2022/02/15 00:37:02;;;;;;;14.75;8.63;;;-0.50;84.30;;;;;;5002017;28;20506;-89
2022/02/15 00:39:28;;;;;;;15.02;8.63;;;-0.50;84.40;;;;;;5018357;28;20045;-88
2022/02/15 00:41:54;;;;;;;15.65;9.07;;;-0.50;84.70;;;;;;5024377;28;20479;-90
2022/02/15 00:44:20;;;;;;;13.63;8.43;;;-0.50;84.90;;;;;;5014636;28;20026;-89
2022/02/15 00:46:46;;;;;;;17.52;8.82;;;-0.50;85.00;;;;;;5013406;28;20041;-89
2022/02/15 00:49:12;;;;;;;10.43;7.40;;;-0.50;85.00;;;;;;5042093;28;20025;-89
2022/02/15 00:51:38;;;;;;;13.07;8.48;;;-0.60;85.10;;;;;;5004099;28;20029;-87
2022/02/15 00:54:04;;;;;;;19.38;9.20;;;-0.60;85.40;;;;;;5026645;28;20018;-89
2022/02/15 00:56:30;;;;;;;16.23;9.27;;;-0.60;85.50;;;;;;5046788;28;20092;-88
2022/02/15 00:58:57;;;;;;;16.90;8.77;;;-0.60;85.50;;;;;;5038327;28;20026;-87
2022/02/15 01:01:23;;;;;;;15.20;9.75;;;-0.60;85.60;;;;;;5003450;28;20026;-88
2022/02/15 01:03:49;;;;;;;17.35;8.60;;;-0.60;85.80;;;;;;5017391;28;20026;-89
2022/02/15 01:06:15;;;;;;;12.82;7.95;;;-0.60;86.00;;;;;;5005411;28;20044;-86
2022/02/15 01:08:42;;;;;;;11.65;8.85;;;-0.60;86.00;;;;;;5020933;28;20021;-90
2022/02/15 01:11:09;;;;;;;15.60;8.77;;;-0.60;86.20;;;;;;5047455;28;20060;-89
2022/02/15 01:13:35;;;;;;;15.48;8.20;;;-0.60;86.40;;;;;;5044217;28;20024;-87
2022/02/15 01:16:02;;;;;;;13.70;8.63;;;-0.60;86.60;;;;;;5034757;28;20442;-87
2022/02/15 01:18:28;;;;;;;14.40;9.40;;;-0.60;86.60;;;;;;5036666;28;20025;-89
2022/02/15 01:20:55;;;;;;;14.02;8.27;;;-0.60;86.70;;;;;;5035782;28;20028;-88
2022/02/15 01:23:21;;;;;;;14.60;8.18;;;-0.60;86.90;;;;;;5018575;28;20033;-87
2022/02/15 01:25:47;;;;;;;14.03;8.40;;;-0.60;86.80;;;;;;5036126;28;20120;-90
2022/02/15 01:28:14;;;;;;;11.45;8.43;;;-0.70;86.90;;;;;;5036908;28;20022;-88
2022/02/15 01:30:40;;;;;;;16.48;8.88;;;-0.60;87.20;;;;;;5036123;28;20391;-91
2022/02/15 01:33:07;;;;;;;13.00;9.40;;;-0.70;87.30;;;;;;5017402;28;20179;-90
2022/02/15 01:35:33;;;;;;;14.20;9.20;;;-0.60;87.60;;;;;;5019968;28;20087;-92
2022/02/15 01:37:59;;;;;;;14.70;9.07;;;-0.60;87.50;;;;;;5024506;28;20065;-91
2022/02/15 01:40:25;;;;;;;17.95;9.48;;;-0.60;87.60;;;;;;5018300;28;20450;-91
2022/02/15 01:42:51;;;;;;;14.30;9.55;;;-0.70;87.70;;;;;;5015860;28;20553;-90
2022/02/15 01:45:18;;;;;;;12.07;8.48;;;-0.70;87.90;;;;;;5034097;28;20037;-91
2022/02/15 01:47:45;;;;;;;13.82;9.68;;;-0.70;88.10;;;;;;5036588;28;20014;-90
2022/02/15 01:50:12;;;;;;;17.20;10.38;;;-0.70;88.20;;;;;;5032619;28;20471;-89
2022/02/15 01:52:38;;;;;;;14.37;9.60;;;-0.70;88.30;;;;;;5015776;28;20026;-88
2022/02/15 01:55:06;;;;;;;15.45;9.73;;;-0.70;88.50;;;;;;5023871;28;20612;-89
2022/02/15 01:57:33;;;;;;;16.92;9.57;;;-0.70;88.60;;;;;;5017484;28;20087;-90
2022/02/15 01:59:59;;;;;;;15.07;10.15;;;-0.70;88.80;;;;;;5016484;28;20029;-90
2022/02/15 02:02:27;;;;;;;16.75;10.25;;;-0.70;89.00;;;;;;5015224;28;20022;-89
2022/02/15 02:07:38;;;;;;;16.88;9.88;;;-0.70;89.10;;;;;;5036307;28;20041;-87
2022/02/15 02:10:05;;;;;;;15.38;8.80;;;-0.70;89.30;;;;;;5044465;28;20022;-88
2022/02/15 02:12:30;;;;;;;13.70;9.35;;;-0.70;89.60;;;;;;5037231;28;20025;-88
2022/02/15 02:15:03;;;;;;;16.67;9.32;;;-0.70;89.70;;;;;;5034769;28;20439;-88
2022/02/15 02:17:28;;;;;;;15.40;11.10;;;-0.70;89.80;;;;;;5016974;28;20068;-90
2022/02/15 02:19:55;;;;;;;14.82;9.25;;;-0.80;89.70;;;;;;5025526;28;20022;-87
2022/02/15 02:22:26;;;;;;;17.13;10.45;;;-0.80;90.00;;;;;;5020367;28;20096;-88
2022/02/15 02:24:52;;;;;;;17.73;11.48;;;-0.80;90.10;;;;;;5015062;28;20096;-88
2022/02/15 02:27:26;;;;;;;17.95;11.20;;;-0.80;90.20;;;;;;5016894;28;20022;-89
2022/02/15 02:29:54;;;;;;;17.77;10.25;;;-0.80;90.20;;;;;;5017211;28;20026;-90
2022/02/15 02:32:28;;;;;;;15.68;9.88;;;-0.90;90.20;;;;;;5026504;28;20029;-90
2022/02/15 02:34:55;;;;;;;19.00;12.38;;;-0.90;90.40;;;;;;5029120;28;20037;-91
2022/02/15 02:37:21;;;;;;;18.57;10.50;;;-0.90;90.40;;;;;;5003956;28;20141;-90
2022/02/15 02:39:52;;;;;;;16.40;10.52;;;-0.90;90.50;;;;;;5016649;28;20267;-90
2022/02/15 02:42:20;;;;;;;14.85;10.32;;;-0.90;90.90;;;;;;5027072;28;20036;-89
2022/02/15 02:44:47;;;;;;;19.45;11.20;;;-0.90;90.60;;;;;;5035467;28;20461;-90
2022/02/15 02:47:14;;;;;;;16.95;9.98;;;-0.90;90.70;;;;;;5034734;28;20021;-91
2022/02/15 02:49:40;;;;;;;17.60;10.75;;;-0.90;90.80;;;;;;5035073;28;20379;-90
2022/02/15 02:52:07;;;;;;;17.13;10.68;;;-0.90;90.90;;;;;;5034680;28;20494;-89
2022/02/15 02:54:33;;;;;;;16.10;10.80;;;-0.90;90.90;;;;;;5013517;28;20033;-90
2022/02/15 02:57:01;;;;;;;15.77;10.27;;;-0.90;91.00;;;;;;5012361;28;20037;-89
2022/02/15 02:59:28;;;;;;;18.35;11.82;;;-0.80;91.00;;;;;;5020367;28;20018;-90
2022/02/15 03:01:54;;;;;;;19.57;10.90;;;-0.80;91.10;;;;;;5017637;28;20098;-91
2022/02/15 03:04:21;;;;;;;16.77;11.55;;;-0.90;91.10;;;;;;5036626;28;20025;-90
2022/02/15 03:06:47;;;;;;;15.65;10.98;;;-0.90;91.20;;;;;;5019597;28;20087;-93
2022/02/15 03:09:13;;;;;;;16.33;9.07;;;-0.90;91.20;;;;;;5038456;28;20033;-92
2022/02/15 03:11:39;;;;;;;17.33;10.57;;;-0.90;91.30;;;;;;5054384;28;20033;-88
2022/02/15 03:14:05;;;;;;;15.75;10.48;;;-0.90;91.30;;;;;;5037307;28;20093;-90
2022/02/15 03:16:31;;;;;;;14.90;9.55;;;-0.90;91.30;;;;;;5020884;28;20031;-91
2022/02/15 03:18:57;;;;;;;17.10;10.40;;;-0.90;91.40;;;;;;5021788;28;20021;-92
2022/02/15 03:21:23;;;;;;;20.73;12.52;;;-0.90;91.40;;;;;;5023130;28;20022;-89
2022/02/15 03:23:50;;;;;;;15.65;10.27;;;-0.90;91.40;;;;;;5041674;28;20479;-93
2022/02/15 03:26:15;;;;;;;16.80;9.77;;;-0.90;91.40;;;;;;5045921;28;20093;-87
2022/02/15 03:28:42;;;;;;;18.20;10.55;;;-0.90;91.50;;;;;;5034968;28;20060;-86
2022/02/15 03:31:07;;;;;;;17.25;11.10;;;-0.90;91.60;;;;;;5017561;28;20022;-87
2022/02/15 03:33:33;;;;;;;19.25;11.35;;;-0.90;91.60;;;;;;5017045;28;20037;-87
2022/02/15 03:36:01;;;;;;;21.77;11.55;;;-0.90;91.70;;;;;;5003195;28;20105;-87
2022/02/15 03:38:27;;;;;;;18.77;13.07;;;-1.00;91.60;;;;;;5019381;28;20042;-90
2022/02/15 03:43:37;;;;;;;16.80;12.27;;;-1.00;91.60;;;;;;5031621;28;20494;-88
2022/02/15 03:46:04;;;;;;;16.55;11.52;;;-1.00;91.70;;;;;;5029966;28;20035;-88
2022/02/15 03:48:31;;;;;;;16.83;11.63;;;-1.00;91.70;;;;;;5000660;28;20464;-89
2022/02/15 03:50:57;;;;;;;17.55;11.55;;;-1.00;91.80;;;;;;5018372;28;20037;-88
2022/02/15 03:53:23;;;;;;;15.73;10.68;;;-1.00;91.80;;;;;;5019553;28;20033;-89
2022/02/15 03:55:49;;;;;;;19.60;12.57;;;-1.00;91.80;;;;;;5018690;28;20483;-89
2022/02/15 03:58:15;;;;;;;16.33;11.90;;;-1.10;91.90;;;;;;4999968;28;20030;-90
2022/02/15 04:00:41;;;;;;;17.63;11.23;;;-1.10;91.90;;;;;;5001113;28;20037;-89
2022/02/15 04:03:07;;;;;;;21.45;12.77;;;-1.10;91.90;;;;;;5001638;28;20419;-90
2022/02/15 04:05:33;;;;;;;20.05;12.77;;;-1.20;91.90;;;;;;5018761;28;20080;-89
2022/02/15 04:07:59;;;;;;;17.55;12.20;;;-1.20;92.00;;;;;;5026107;28;20022;-90
2022/02/15 04:10:25;;;;;;;16.80;11.27;;;-1.20;92.00;;;;;;5024984;28;20529;-90
2022/02/15 04:12:51;;;;;;;22.13;13.73;;;-1.20;92.10;;;;;;5001948;28;20022;-92
2022/02/15 04:15:18;;;;;;;22.42;12.75;;;-1.20;92.20;;;;;;5020838;28;20364;-92
2022/02/15 04:17:53;;;;;;;21.92;11.95;;;-1.20;92.20;;;;;;5003474;28;20052;-91
2022/02/15 04:20:19;;;;;;;18.15;11.68;;;-1.20;92.20;;;;;;5034300;28;20014;-94
2022/02/15 04:22:45;;;;;;;18.60;11.43;;;-1.20;92.20;;;;;;5015772;28;20121;-88
2022/02/15 04:25:11;;;;;;;22.25;13.02;;;-1.20;92.20;;;;;;5024919;28;20067;-90
2022/02/15 04:27:37;;;;;;;22.52;14.02;;;-1.20;92.20;;;;;;5012899;28;20033;-89
2022/02/15 04:30:07;;;;;;;19.13;12.52;;;-1.20;92.20;;;;;;5037551;28;20076;-89
2022/02/15 04:32:33;;;;;;;21.52;12.68;;;-1.20;92.30;;;;;;5051566;28;20051;-89
2022/02/15 04:34:59;;;;;;;20.00;11.07;;;-1.20;92.30;;;;;;5057350;28;20037;-92
2022/02/15 04:37:25;;;;;;;21.08;12.60;;;-1.20;92.30;;;;;;5023015;28;20111;-90
2022/02/15 04:39:52;;;;;;;18.67;11.18;;;-1.30;92.40;;;;;;5005956;28;20089;-89
2022/02/15 04:42:18;;;;;;;18.25;11.77;;;-1.20;92.40;;;;;;5027866;28;20037;-88
2022/02/15 04:44:44;;;;;;;17.08;11.82;;;-1.20;92.40;;;;;;5032530;28;20028;-91
2022/02/15 04:47:10;;;;;;;18.90;11.60;;;-1.30;92.30;;;;;;5006340;28;20105;-87
2022/02/15 04:49:36;;;;;;;17.83;12.85;;;-1.20;92.70;;;;;;4998448;28;20030;-87
2022/02/15 04:52:02;;;;;;;18.75;12.68;;;-1.20;92.40;;;;;;5017260;28;20048;-91
2022/02/15 04:54:28;;;;;;;17.15;11.82;;;-1.20;92.40;;;;;;5018272;28;20068;-90
2022/02/15 04:56:54;;;;;;;19.65;11.55;;;-1.20;92.40;;;;;;5015972;28;20483;-92
2022/02/15 04:59:20;;;;;;;22.65;11.80;;;-1.20;92.40;;;;;;5025874;28;20061;-89
2022/02/15 05:01:47;;;;;;;16.02;9.13;;;-1.20;92.30;;;;;;5019553;28;20025;-91
2022/02/15 05:06:58;;;;;;;20.45;12.43;;;-1.20;92.30;;;;;;5016212;28;20133;-88
2022/02/15 05:09:26;;;;;;;19.17;12.27;;;-1.30;92.20;;;;;;5017488;28;20025;-89
2022/02/15 05:11:52;;;;;;;21.92;12.18;;;-1.20;92.20;;;;;;5015629;28;20022;-91
2022/02/15 05:14:18;;;;;;;17.20;11.57;;;-1.30;92.20;;;;;;5015844;28;20036;-88
2022/02/15 05:16:43;;;;;;;25.05;11.90;;;-1.30;92.20;;;;;;5017173;28;20033;-91
2022/02/15 05:19:09;;;;;;;20.17;12.07;;;-1.20;92.30;;;;;;5015908;28;20030;-88
2022/02/15 05:21:36;;;;;;;21.90;11.93;;;-1.20;92.20;;;;;;5018857;28;20076;-88
2022/02/15 05:24:02;;;;;;;16.95;11.82;;;-1.20;92.20;;;;;;5019244;28;20022;-90
2022/02/15 05:26:28;;;;;;;20.10;11.27;;;-1.20;92.20;;;;;;5019819;28;20057;-90
2022/02/15 05:28:54;;;;;;;21.38;12.05;;;-1.20;92.20;;;;;;5010073;28;20023;-90
2022/02/15 05:31:23;;;;;;;17.38;11.80;;;-1.20;92.10;;;;;;4999919;28;20026;-92
2022/02/15 05:33:49;;;;;;;16.33;10.45;;;-1.10;92.10;;;;;;5003217;28;20033;-88
2022/02/15 05:36:15;;;;;;;18.23;11.23;;;-1.10;92.00;;;;;;5017374;28;20094;-88
2022/02/15 05:38:45;;;;;;;18.85;11.63;;;-1.10;92.00;;;;;;5022827;28;20077;-87
2022/02/15 05:41:11;;;;;;;15.85;11.65;;;-1.10;91.90;;;;;;5052679;28;20027;-91
2022/02/15 05:43:37;;;;;;;15.88;10.50;;;-1.10;91.80;;;;;;5050301;28;20021;-89
2022/02/15 05:46:03;;;;;;;17.23;11.45;;;-1.00;91.80;;;;;;5037753;28;20075;-89
2022/02/15 05:48:29;;;;;;;22.45;11.85;;;-1.00;91.70;;;;;;5017510;28;20022;-90
2022/02/15 05:50:55;;;;;;;20.77;11.70;;;-1.00;91.60;;;;;;5017821;28;20030;-92
2022/02/15 05:53:25;;;;;;;15.90;10.27;;;-1.00;91.60;;;;;;5002791;28;20042;-92
2022/02/15 05:55:55;;;;;;;18.15;11.30;;;-1.00;91.60;;;;;;5018482;28;20133;-92
2022/02/15 05:58:22;;;;;;;17.85;10.45;;;-0.90;91.50;;;;;;5006660;28;20034;-90
2022/02/15 06:00:48;;;;;;;17.52;11.65;;;-0.90;91.50;;;;;;5033977;28;20017;-92
2022/02/15 06:05:59;;;;;;;20.60;12.65;;;-0.90;91.30;;;;;;5032427;28;20048;-89
2022/02/15 06:08:25;;;;;;;18.67;11.02;;;-0.80;91.30;;;;;;5037424;28;20029;-88
2022/02/15 06:10:51;;;;;;;14.88;10.30;;;-0.80;91.10;;;;;;5017597;28;20080;-88
2022/02/15 06:13:22;;;;;;;17.95;11.50;;;-0.80;91.10;;;;;;5032724;28;20013;-94
2022/02/15 06:15:50;;;;;;;19.20;11.15;;;-0.80;91.00;;;;;;5030345;28;20055;-91
2022/02/15 06:18:20;;;;;;;18.05;10.70;;;-0.80;90.90;;;;;;5004728;28;20034;-90
2022/02/15 06:20:47;;;;;;;20.48;9.32;;;-0.80;90.90;;;;;;5027501;28;20052;-90
2022/02/15 06:23:15;;;;;;;16.13;9.82;;;-0.70;90.80;;;;;;5015401;28;20097;-93
2022/02/15 06:25:41;;;;;;;19.55;10.38;;;-0.70;90.70;;;;;;5042446;28;20045;-84
2022/02/15 06:28:07;;;;;;;17.45;10.57;;;-0.70;90.70;;;;;;5034256;28;20434;-88
2022/02/15 06:30:33;;;;;;;17.83;11.55;;;-0.70;90.60;;;;;;5033769;28;20109;-86
2022/02/15 06:32:59;;;;;;;16.02;10.15;;;-0.70;90.60;;;;;;5034798;28;20478;-89
2022/02/15 06:35:25;;;;;;;14.43;9.32;;;-0.70;90.50;;;;;;5035695;28;20025;-88
2022/02/15 06:37:51;;;;;;;17.42;11.50;;;-0.60;90.50;;;;;;5017341;28;20493;-88
2022/02/15 06:40:19;;;;;;;15.88;10.68;;;-0.60;90.40;;;;;;5034283;28;20029;-87
2022/02/15 06:42:46;;;;;;;19.08;10.88;;;-0.60;90.30;;;;;;5020439;28;20103;-87
2022/02/15 06:45:13;;;;;;;15.85;10.32;;;-0.60;90.30;;;;;;5021258;28;20033;-87
2022/02/15 06:47:39;;;;;;;18.33;11.23;;;-0.60;90.20;;;;;;5043558;28;20033;-88
2022/02/15 06:50:06;;;;;;;14.32;9.95;;;-0.60;90.20;;;;;;5048855;28;20069;-87
2022/02/15 06:52:33;;;;;;;16.08;10.43;;;-0.50;90.20;;;;;;5052976;28;20010;-86
2022/02/15 06:54:59;;;;;;;16.70;10.35;;;-0.40;90.10;;;;;;5045068;28;20028;-89
2022/02/15 06:57:25;;;;;;;14.57;10.43;;;-0.40;89.90;;;;;;5015533;28;20539;-88
2022/02/15 06:59:51;;;;;;;21.70;11.73;;;-0.40;89.60;;;;;;5015192;28;20105;-88
2022/02/15 07:02:20;;;;;;;15.13;8.80;;;-0.40;89.40;;;;;;4997760;28;20064;-88
2022/02/15 07:04:46;;;;;;;19.60;9.15;;;-0.30;89.20;;;;;;5018115;28;20028;-88
2022/02/15 07:07:13;;;;;;;11.85;8.80;;;-0.30;89.00;;;;;;5002673;28;20044;-88
2022/02/15 07:09:40;;;;;;;14.18;9.57;;;-0.20;89.00;;;;;;4998601;28;20394;-87
2022/02/15 07:12:07;;;;;;;14.13;9.93;;;-0.20;88.80;;;;;;5016297;28;20022;-86
2022/02/15 07:14:34;;;;;;;11.98;9.40;;;-0.10;88.50;;;;;;5024310;28;20121;-87
2022/02/15 07:17:00;;;;;;;15.70;8.73;;;-0.10;88.30;;;;;;5023630;28;20017;-86
2022/02/15 07:19:29;;;;;;;14.30;9.27;;;0.00;88.10;;;;;;5023451;28;20025;-89
2022/02/15 07:22:02;;;;;;;16.58;11.05;;;0.00;87.70;;;;;;5041674;28;20021;-87
2022/02/15 07:24:32;;;;;;;19.52;12.35;;;0.00;87.50;;;;;;5039516;28;20092;-88
2022/02/15 07:26:58;;;;;;;19.35;10.25;;;0.00;87.40;;;;;;5034603;28;20075;-90
2022/02/15 07:29:24;;;;;;;12.82;8.68;;;0.10;87.00;;;;;;5014215;28;20392;-89
2022/02/15 07:31:50;;;;;;;20.17;12.52;;;0.10;86.80;;;;;;5015966;28;20077;-89
2022/02/15 07:34:16;;;;;;;20.00;13.00;;;0.10;86.70;;;;;;4996995;28;20030;-90
2022/02/15 07:36:43;;;;;;;20.15;12.75;;;0.10;86.60;;;;;;5017449;28;20093;-88
2022/02/15 07:39:10;;;;;;;22.17;10.73;;;0.10;86.40;;;;;;5015774;28;20048;-88
2022/02/15 07:41:36;;;;;;;18.65;12.68;;;0.00;86.10;;;;;;5034882;28;20048;-88
2022/02/15 07:44:02;;;;;;;17.80;12.32;;;0.00;86.10;;;;;;5034691;28;20022;-86
2022/02/15 07:46:27;;;;;;;18.42;11.02;;;0.00;86.30;;;;;;5031402;28;20056;-87
2022/02/15 07:48:53;;;;;;;25.05;15.65;;;0.10;86.20;;;;;;5008725;28;20028;-86
2022/02/15 07:51:19;;;;;;;19.08;11.30;;;0.10;86.10;;;;;;5023001;28;20030;-87
2022/02/15 07:53:45;;;;;;;18.08;9.60;;;0.20;86.00;;;;;;5015209;28;20022;-89
2022/02/15 07:56:11;;;;;;;20.08;10.38;;;0.20;85.70;;;;;;4996112;28;20038;-89
2022/02/15 07:58:37;;;;;;;16.88;9.73;;;0.30;85.50;;;;;;5014410;28;20460;-87
2022/02/15 08:01:04;;;;;;;17.25;10.45;;;0.30;85.40;;;;;;5013463;28;20093;-87
2022/02/15 08:03:30;;;;;;;15.85;8.57;;;0.30;85.30;;;;;;5028446;28;20505;-90
2022/02/15 08:05:56;;;;;;;15.15;9.90;;;0.40;85.00;;;;;;5039052;28;20045;-89
2022/02/15 08:08:22;;;;;;;18.88;10.50;;;0.50;84.90;;;;;;5027930;28;20520;-88
2022/02/15 08:10:48;;;;;;;12.88;9.55;;;0.60;84.80;;;;;;5038144;28;20076;-89
2022/02/15 08:13:21;;;;;;;20.13;9.95;;;0.60;84.30;;;;;;4999492;28;20106;-90
2022/02/15 08:15:51;;;;;;;17.38;10.35;;;0.70;84.00;;;;;;5016855;28;20026;-89
2022/02/15 08:18:17;;;;;;;17.08;9.75;;;0.90;83.90;;;;;;5016766;28;20022;-88
2022/02/15 08:20:44;;;;;;;15.35;10.45;;;1.00;83.50;;;;;;5017205;28;20517;-87
2022/02/15 08:23:10;;;;;;;13.07;8.43;;;1.10;83.20;;;;;;5016668;28;20109;-89
2022/02/15 08:25:36;;;;;;;15.88;9.35;;;1.30;82.50;;;;;;5018114;28;20053;-87
2022/02/15 08:28:02;;;;;;;14.10;10.32;;;1.40;81.90;;;;;;5016256;28;20030;-88
2022/02/15 08:30:28;;;;;;;13.52;9.70;;;1.80;82.10;;;;;;5018269;28;20360;-87
2022/02/15 08:32:54;;;;;;;18.30;10.68;;;2.80;82.10;;;;;;4958391;29;20039;-88
2022/02/15 08:35:20;;;;;;;15.00;9.30;;;4.00;78.10;;;;;;4940086;29;20032;-89
2022/02/15 08:37:47;;;;;;;16.05;10.23;;;5.00;73.90;;;;;;4953435;29;20055;-89
2022/02/15 08:40:14;;;;;;;14.68;9.20;;;5.70;70.50;;;;;;4955766;29;20085;-90
2022/02/15 08:42:41;;;;;;;11.65;8.00;;;6.30;68.00;;;;;;4962836;28;20034;-88
2022/02/15 08:45:08;;;;;;;16.65;11.13;;;6.50;66.10;;;;;;4961642;28;20030;-89
2022/02/15 08:47:35;;;;;;;16.73;10.95;;;6.20;65.20;;;;;;4976123;28;20031;-87
2022/02/15 08:50:01;;;;;;;17.40;11.50;;;6.10;65.70;;;;;;4959513;28;20035;-88
2022/02/15 08:52:30;;;;;;;11.50;8.55;;;6.10;65.00;;;;;;4960292;28;20086;-89
2022/02/15 08:54:56;;;;;;;13.50;10.05;;;6.00;64.70;;;;;;4961718;28;20030;-88
2022/02/15 08:57:22;;;;;;;15.95;11.05;;;5.90;64.20;;;;;;4960127;28;20082;-89
2022/02/15 08:59:53;;;;;;;13.65;9.73;;;6.00;63.90;;;;;;4980494;28;20039;-88
2022/02/15 09:02:20;;;;;;;16.17;11.43;;;6.40;64.10;;;;;;4989958;28;20110;-87
2022/02/15 09:04:46;;;;;;;;;;;6.80;62.90;;;;;;5017167;28;20033;-90
2022/02/15 09:07:12;;;;;;;13.30;9.10;;;7.30;64.40;;;;;;5016868;28;20004;-90
2022/02/15 09:09:38;;;;;;;11.32;9.07;;;7.60;60.90;;;;;;5020442;28;20073;-89
2022/02/15 09:12:05;;;;;;;15.80;8.98;;;7.90;59.50;;;;;;5022121;28;20020;-87
2022/02/15 09:14:31;;;;;;;13.48;9.90;;;8.50;57.60;;;;;;5000580;28;20087;-88
2022/02/15 09:16:59;;;;;;;12.32;9.55;;;9.10;55.90;;;;;;4998634;28;20019;-88
2022/02/15 09:19:28;;;;;;;15.60;10.73;;;9.60;54.50;;;;;;4994891;28;20026;-86
2022/02/15 09:21:54;;;;;;;12.25;10.52;;;10.50;53.10;;;;;;4996254;28;20464;-88
2022/02/15 09:24:21;;;;;;;13.93;10.57;;;11.40;51.40;;;;;;4996468;28;20373;-89
2022/02/15 09:26:47;;;;;;;13.60;10.27;;;12.40;48.80;;;;;;4998278;28;20045;-91
2022/02/15 09:29:15;;;;;;;13.15;9.23;;;13.00;46.50;;;;;;4998844;28;20014;-90
2022/02/15 09:31:41;;;;;;;15.70;10.90;;;13.50;45.40;;;;;;4997754;28;20027;-88
2022/02/15 09:34:07;;;;;;;18.25;10.32;;;13.80;44.00;;;;;;5000622;28;20053;-90
2022/02/15 09:36:34;;;;;;;15.00;10.77;;;14.30;43.40;;;;;;5001142;28;20022;-90
2022/02/15 09:38:59;;;;;;;15.23;10.32;;;14.70;42.40;;;;;;5026750;28;20073;-86
2022/02/15 09:41:28;;;;;;;14.73;10.35;;;14.40;41.50;;;;;;5028974;28;20029;-90
2022/02/15 09:43:54;;;;;;;12.10;9.43;;;14.50;41.90;;;;;;5012819;28;20006;-90
2022/02/15 09:46:23;;;;;;;11.07;9.98;;;14.90;40.90;;;;;;5042227;28;20046;-86
2022/02/15 09:48:49;;;;;;;15.95;11.65;;;14.70;40.10;;;;;;5051726;28;20021;-85
2022/02/15 09:51:18;;;;;;;12.60;10.48;;;14.70;40.60;;;;;;5043876;28;20049;-88
2022/02/15 09:53:44;;;;;;;11.20;9.45;;;14.60;40.80;;;;;;5030515;28;20537;-90
2022/02/15 09:56:10;;;;;;;14.02;10.63;;;14.10;40.70;;;;;;5046881;28;20030;-88
2022/02/15 09:58:36;;;;;;;12.75;11.40;;;14.00;41.10;;;;;;5043449;28;20036;-89
2022/02/15 10:01:02;;;;;;;11.43;9.98;;;13.70;41.20;;;;;;5041336;28;20033;-87
2022/02/15 10:03:28;;;;;;;14.25;11.30;;;12.70;41.40;;;;;;5017318;28;20535;-86
2022/02/15 10:05:54;;;;;;;16.25;11.55;;;11.70;43.40;;;;;;5028678;28;20026;-89
2022/02/15 10:08:31;;;;;;;14.63;10.60;;;11.70;44.60;;;;;;5037050;28;20092;-87
2022/02/15 10:11:11;;;;;;;17.15;13.10;;;12.10;44.10;;;;;;5019616;28;20101;-88
2022/02/15 10:13:49;;;;;;;20.58;14.13;;;12.40;43.80;;;;;;5025237;28;20034;-88
2022/02/15 10:16:15;;;;;;;18.60;13.10;;;13.00;43.60;;;;;;5032544;28;20091;-88
2022/02/15 10:18:41;;;;;;;21.10;12.63;;;13.60;42.70;;;;;;5042141;28;20108;-90
2022/02/15 10:21:08;;;;;;;15.75;12.27;;;14.00;41.70;;;;;;5019089;28;20030;-89
2022/02/15 10:23:34;;;;;;;15.70;11.20;;;14.50;40.90;;;;;;5001039;28;20025;-89
2022/02/15 10:26:00;;;;;;;13.95;11.07;;;15.10;40.00;;;;;;5016406;28;20072;-89
2022/02/15 10:28:28;;;;;;;18.48;15.02;;;15.60;39.00;;;;;;4999749;28;20038;-89
2022/02/15 10:30:56;;;;;;;20.27;12.57;;;15.80;38.60;;;;;;4998499;28;20092;-89
2022/02/15 10:33:34;;;;;;;19.50;13.38;;;16.00;38.40;;;;;;5000373;28;20026;-89
2022/02/15 10:36:14;;;;;;;14.32;11.02;;;16.10;37.60;;;;;;5000454;28;20029;-90
2022/02/15 10:38:49;;;;;;;16.73;11.15;;;15.60;37.40;;;;;;5007327;28;20056;-86
2022/02/15 10:41:17;;;;;;;15.07;12.00;;;14.40;38.50;;;;;;5034297;28;20029;-88
2022/02/15 10:43:56;;;;;;;16.80;12.20;;;13.20;39.90;;;;;;5016741;28;20025;-88
2022/02/15 10:46:26;;;;;;;16.50;11.88;;;11.90;41.70;;;;;;5033969;28;20038;-88
2022/02/15 10:48:53;;;;;;;17.38;12.60;;;10.60;43.60;;;;;;5016481;28;20053;-90
2022/02/15 10:51:20;;;;;;;16.63;12.10;;;9.70;45.30;;;;;;5017128;28;20021;-88
2022/02/15 10:53:46;;;;;;;30.65;20.02;;;9.10;46.70;;;;;;5020081;28;20040;-88
2022/02/15 10:56:13;;;;;;;18.98;13.63;;;8.60;48.20;;;;;;5023222;28;20411;-88
2022/02/15 10:58:39;;;;;;;17.58;10.98;;;8.10;49.50;;;;;;5017942;28;20079;-87
2022/02/15 11:01:10;;;;;;;23.20;14.48;;;7.60;50.40;;;;;;5035283;28;20026;-86
2022/02/15 11:03:38;;;;;;;18.00;12.57;;;7.20;51.90;;;;;;5035391;28;20022;-87
2022/02/15 11:06:06;;;;;;;22.20;12.63;;;7.00;52.70;;;;;;5035701;28;20491;-87
2022/02/15 11:08:35;;;;;;;16.05;10.30;;;6.80;53.20;;;;;;5039289;28;20368;-88
2022/02/15 11:11:34;;;;;;;15.82;11.68;;;6.60;54.00;;;;;;5049495;28;20056;-87
2022/02/15 11:14:02;;;;;;;15.52;10.38;;;6.20;54.90;;;;;;5028867;28;20061;-88
2022/02/15 11:16:32;;;;;;;15.07;12.32;;;6.10;55.60;;;;;;5013072;28;20033;-85
2022/02/15 11:19:09;;;;;;;14.63;10.98;;;6.00;56.40;;;;;;5017442;28;20026;-87
2022/02/15 11:21:35;;;;;;;20.92;12.20;;;5.90;56.80;;;;;;5035797;28;20171;-87
2022/02/15 11:24:06;;;;;;;16.35;11.35;;;5.70;57.10;;;;;;5033933;28;20474;-87
2022/02/15 11:26:33;;;;;;;15.75;12.60;;;5.60;57.60;;;;;;5033717;28;20041;-87
2022/02/15 11:29:00;;;;;;;23.80;12.65;;;5.50;58.20;;;;;;5035514;28;20053;-86
2022/02/15 11:31:31;;;;;;;23.88;11.80;;;5.50;58.50;;;;;;5016996;28;20025;-84
2022/02/15 11:34:01;;;;;;;12.48;9.23;;;5.50;58.80;;;;;;5036631;28;20113;-87
2022/02/15 11:36:26;;;;;;;17.67;12.02;;;5.40;58.60;;;;;;5036125;28;20376;-86
2022/02/15 11:40:05;;;;;;;18.67;12.48;;;5.40;59.10;;;;;;5022593;28;20073;-86
2022/02/15 11:42:47;;;;;;;17.67;10.88;;;5.30;59.20;;;;;;4846772;29;20610;-88
2022/02/15 11:45:29;;;;;;;15.40;10.70;;;5.20;59.70;;;;;;4871350;29;20044;-86
2022/02/15 11:48:06;;;;;;;13.65;9.85;;;5.10;59.80;;;;;;4903998;29;20087;-87
2022/02/15 11:50:47;;;;;;;15.45;11.68;;;5.00;60.20;;;;;;4919939;29;20055;-89
2022/02/15 11:53:16;;;;;;;14.35;10.07;;;5.00;60.70;;;;;;4919322;29;20036;-89
2022/02/15 11:55:43;;;;;;;14.38;10.10;;;5.00;60.70;;;;;;4889633;29;20100;-87
2022/02/15 11:58:09;;;;;;;15.65;9.80;;;5.00;60.80;;;;;;4931483;28;20076;-87
2022/02/15 12:00:37;;;;;;;10.43;8.15;;;4.90;61.00;;;;;;4942175;29;20031;-87
2022/02/15 12:03:04;;;;;;;14.52;9.68;;;4.90;61.20;;;;;;4952190;29;20042;-86
2022/02/15 12:05:34;;;;;;;16.58;11.40;;;4.80;61.40;;;;;;4950381;28;20496;-89
2022/02/15 12:08:00;;;;;;;15.50;10.68;;;4.80;61.80;;;;;;4938379;29;20110;-86
2022/02/15 12:10:34;;;;;;;14.93;9.45;;;4.80;61.80;;;;;;4923652;29;20032;-86
2022/02/15 12:13:02;;;;;;;16.23;10.98;;;4.80;62.20;;;;;;4944726;29;20032;-88
2022/02/15 12:15:34;;;;;;;15.52;9.75;;;4.80;62.30;;;;;;4912923;29;20028;-88
2022/02/15 12:18:00;;;;;;;12.40;9.75;;;4.80;62.40;;;;;;4950987;28;20033;-86
2022/02/15 12:20:27;;;;;;;11.63;8.30;;;4.80;62.30;;;;;;5039493;28;20387;-86
2022/02/15 12:22:54;;;;;;;17.92;10.13;;;4.70;62.40;;;;;;5031206;28;20103;-87
2022/02/15 12:25:21;;;;;;;16.38;9.07;;;4.70;62.50;;;;;;5049475;28;20372;-89
2022/02/15 12:27:48;;;;;;;11.47;8.77;;;4.70;62.60;;;;;;5019145;28;20029;-87
2022/02/15 12:30:17;;;;;;;11.57;9.07;;;4.70;62.70;;;;;;5038744;28;20017;-86
2022/02/15 12:32:46;;;;;;;12.60;8.15;;;4.60;62.80;;;;;;5036727;28;20479;-87
2022/02/15 12:35:12;;;;;;;14.88;9.48;;;4.50;63.20;;;;;;5018704;28;20103;-88
2022/02/15 12:37:38;;;;;;;18.00;10.07;;;4.40;63.50;;;;;;5036397;28;20054;-88
2022/02/15 12:40:06;;;;;;;13.95;8.68;;;4.40;64.00;;;;;;5037979;28;20025;-87
2022/02/15 12:42:34;;;;;;;14.88;9.50;;;4.40;64.10;;;;;;5037076;28;20105;-89
2022/02/15 12:45:02;;;;;;;15.00;9.80;;;4.30;64.20;;;;;;5037645;28;20562;-88